Time;durP1;ratioP1;P1;durP2;ratioP2;P2;SDS_P1;SDS_P2;PMS_P1;PMS_P2;Temp;Humidity;BMP_temperature;BMP_pressure;BME280_temperature;BME280_humidity;BME280_pressure;Samples;Min_cycle;Max_cycle;Signal;HPM_P1;HPM_P2
2022/03/10 00:01:34;;;;;;;7.65;4.82;;;4.90;88.30;;;;;;5051246;28;20308;-86
2022/03/10 00:04:04;;;;;;;8.10;5.97;;;4.90;87.50;;;;;;5052518;28;20214;-86
2022/03/10 00:06:35;;;;;;;8.95;5.80;;;4.80;87.80;;;;;;5052106;28;20226;-87
2022/03/10 00:09:03;;;;;;;6.60;5.13;;;4.80;87.40;;;;;;5051504;28;20217;-87
2022/03/10 00:11:32;;;;;;;8.05;5.75;;;4.80;87.70;;;;;;5050971;28;20250;-88
2022/03/10 00:14:00;;;;;;;9.93;5.68;;;4.80;87.70;;;;;;5055343;28;20201;-88
2022/03/10 00:16:28;;;;;;;6.15;4.97;;;4.70;88.50;;;;;;5055349;28;20206;-85
2022/03/10 00:18:57;;;;;;;7.38;5.43;;;4.70;87.50;;;;;;5055410;28;20212;-86
2022/03/10 00:21:27;;;;;;;5.07;4.68;;;4.70;89.20;;;;;;5055124;28;20230;-87
2022/03/10 00:23:55;;;;;;;8.40;5.00;;;4.70;89.20;;;;;;5055833;28;20319;-88
2022/03/10 00:26:23;;;;;;;6.40;5.55;;;4.70;90.30;;;;;;5055530;28;20209;-88
2022/03/10 00:28:52;;;;;;;6.38;5.65;;;4.60;89.60;;;;;;5055148;28;20221;-87
2022/03/10 00:31:21;;;;;;;9.40;5.60;;;4.60;88.60;;;;;;5055327;28;20229;-87
2022/03/10 00:33:49;;;;;;;5.90;5.22;;;4.60;88.50;;;;;;5055426;28;20217;-87
2022/03/10 00:36:18;;;;;;;5.03;4.53;;;4.60;89.80;;;;;;5055972;28;20234;-87
2022/03/10 00:38:51;;;;;;;5.53;4.90;;;4.60;90.10;;;;;;5055572;28;20286;-87
2022/03/10 00:41:19;;;;;;;6.78;5.22;;;4.50;90.20;;;;;;5055492;28;20237;-87
2022/03/10 00:43:49;;;;;;;7.00;5.72;;;4.50;90.20;;;;;;5055284;28;20220;-86
2022/03/10 00:46:18;;;;;;;6.15;5.47;;;4.50;90.40;;;;;;5054890;28;20209;-87
2022/03/10 00:48:46;;;;;;;5.18;4.68;;;4.40;90.80;;;;;;5055291;28;20222;-87
2022/03/10 00:51:15;;;;;;;6.68;5.70;;;4.40;91.40;;;;;;5055067;28;20221;-87
2022/03/10 00:53:44;;;;;;;10.82;5.55;;;4.40;91.00;;;;;;5055527;28;20263;-87
2022/03/10 00:56:14;;;;;;;6.95;6.07;;;4.40;90.70;;;;;;5054940;28;20228;-87
2022/03/10 00:58:42;;;;;;;6.45;5.75;;;4.40;90.40;;;;;;5054848;28;20198;-87
2022/03/10 01:01:11;;;;;;;6.28;5.43;;;4.40;90.70;;;;;;5054314;28;20225;-87
2022/03/10 01:03:40;;;;;;;7.15;5.90;;;4.30;90.40;;;;;;5054931;28;20206;-87
2022/03/10 01:06:11;;;;;;;8.23;5.88;;;4.30;92.80;;;;;;5054694;28;20284;-87
2022/03/10 01:08:39;;;;;;;5.60;5.10;;;4.30;91.30;;;;;;5054693;28;20225;-90
2022/03/10 01:11:08;;;;;;;7.13;5.00;;;4.30;91.50;;;;;;5054382;28;20226;-87
2022/03/10 01:13:38;;;;;;;5.35;4.78;;;4.30;91.80;;;;;;5054306;28;20209;-87
2022/03/10 01:16:06;;;;;;;8.68;4.97;;;4.30;91.90;;;;;;5054738;28;20217;-88
2022/03/10 01:18:35;;;;;;;6.72;5.15;;;4.30;91.10;;;;;;5054797;28;20221;-87
2022/03/10 01:21:03;;;;;;;5.90;5.35;;;4.30;91.40;;;;;;5054255;28;20225;-87
2022/03/10 01:23:31;;;;;;;6.47;4.50;;;4.30;91.60;;;;;;5053823;28;20206;-87
2022/03/10 01:26:00;;;;;;;6.20;5.55;;;4.30;91.20;;;;;;5054424;28;20205;-87
2022/03/10 01:28:28;;;;;;;7.13;5.88;;;4.30;91.60;;;;;;5054759;28;20217;-87
2022/03/10 01:30:58;;;;;;;6.47;5.10;;;4.30;91.70;;;;;;5054339;28;20217;-87
2022/03/10 01:33:26;;;;;;;8.10;6.15;;;4.20;91.80;;;;;;5054439;28;20205;-86
2022/03/10 01:35:55;;;;;;;8.38;5.80;;;4.20;91.90;;;;;;5054277;28;20202;-86
2022/03/10 01:38:23;;;;;;;8.88;5.40;;;4.20;91.70;;;;;;5054493;28;20202;-86
2022/03/10 01:40:52;;;;;;;11.68;4.85;;;4.20;92.00;;;;;;5055450;28;20249;-87
2022/03/10 01:43:20;;;;;;;7.07;5.65;;;4.20;91.30;;;;;;5055557;28;20233;-87
2022/03/10 01:45:48;;;;;;;7.97;5.53;;;4.20;93.40;;;;;;5054322;28;20247;-86
2022/03/10 01:48:18;;;;;;;8.27;6.35;;;4.20;92.10;;;;;;5053771;28;20245;-87
2022/03/10 01:50:47;;;;;;;7.95;5.35;;;4.10;91.80;;;;;;5055628;28;20226;-86
2022/03/10 01:53:15;;;;;;;7.75;5.70;;;4.10;91.80;;;;;;5059165;28;20251;-87
2022/03/10 01:55:47;;;;;;;6.43;5.53;;;4.10;92.00;;;;;;5055500;28;20198;-90
2022/03/10 01:58:15;;;;;;;8.52;6.30;;;4.10;93.10;;;;;;5056006;28;20201;-87
2022/03/10 02:00:43;;;;;;;8.50;6.45;;;4.10;92.40;;;;;;5055105;28;20229;-88
2022/03/10 02:03:12;;;;;;;6.18;5.60;;;4.10;93.40;;;;;;5055778;28;20209;-90
2022/03/10 02:05:42;;;;;;;8.38;5.78;;;4.00;92.80;;;;;;5053740;28;20206;-88
2022/03/10 02:10:56;;;;;;;9.38;5.97;;;4.00;92.50;;;;;;5053659;28;20230;-90
2022/03/10 02:13:25;;;;;;;6.47;5.88;;;4.00;93.80;;;;;;5053740;28;20256;-90
2022/03/10 02:18:39;;;;;;;11.50;6.63;;;4.00;92.80;;;;;;5055728;28;20208;-90
2022/03/10 02:21:08;;;;;;;4.88;4.50;;;4.00;94.10;;;;;;5055402;28;20222;-90
2022/03/10 02:23:38;;;;;;;5.43;4.43;;;3.90;93.40;;;;;;5053417;28;20228;-90
2022/03/10 02:26:09;;;;;;;6.50;4.95;;;3.90;93.90;;;;;;5053287;28;20201;-90
2022/03/10 02:28:37;;;;;;;5.57;4.95;;;3.80;93.70;;;;;;5053007;28;20205;-90
2022/03/10 02:31:06;;;;;;;5.13;4.63;;;3.70;94.00;;;;;;5053298;28;20248;-89
2022/03/10 02:33:34;;;;;;;7.32;5.35;;;3.60;94.30;;;;;;5053320;28;20244;-88
2022/03/10 02:36:03;;;;;;;5.15;4.65;;;3.60;95.10;;;;;;5053366;28;20209;-87
2022/03/10 02:38:31;;;;;;;8.07;5.55;;;3.50;94.70;;;;;;5053030;28;20205;-90
2022/03/10 02:41:01;;;;;;;5.93;5.07;;;3.40;95.00;;;;;;5052427;28;20233;-90
2022/03/10 02:43:30;;;;;;;6.78;5.15;;;3.40;95.20;;;;;;5053153;28;20206;-89
2022/03/10 02:45:58;;;;;;;5.40;4.93;;;3.40;95.50;;;;;;5052730;28;20213;-90
2022/03/10 02:48:27;;;;;;;4.85;4.38;;;3.30;95.60;;;;;;5053069;28;20228;-88
2022/03/10 02:50:55;;;;;;;6.85;5.40;;;3.30;96.30;;;;;;5052406;28;20222;-87
2022/03/10 02:53:24;;;;;;;5.85;5.25;;;3.30;95.90;;;;;;5053305;28;20292;-87
2022/03/10 02:55:52;;;;;;;7.13;4.88;;;3.20;95.90;;;;;;5053038;28;20197;-88
2022/03/10 02:58:22;;;;;;;13.10;4.65;;;3.20;96.30;;;;;;5053396;28;20214;-87
2022/03/10 03:00:51;;;;;;;5.10;4.65;;;3.20;96.50;;;;;;5052783;28;20213;-87
2022/03/10 03:03:20;;;;;;;13.63;5.80;;;3.10;96.40;;;;;;5035097;28;20256;-88
2022/03/10 03:05:49;;;;;;;5.97;4.97;;;3.00;96.80;;;;;;5053123;28;20291;-87
2022/03/10 03:08:17;;;;;;;10.80;5.65;;;3.00;97.00;;;;;;5052266;28;20251;-87
2022/03/10 03:10:46;;;;;;;6.65;5.75;;;2.90;97.20;;;;;;5052554;28;20238;-87
2022/03/10 03:13:15;;;;;;;8.40;5.63;;;2.90;97.50;;;;;;5052905;28;20244;-87
2022/03/10 03:15:46;;;;;;;10.57;5.47;;;2.90;97.60;;;;;;5052465;28;20206;-87
2022/03/10 03:18:15;;;;;;;6.90;6.00;;;2.90;98.00;;;;;;5052720;28;20236;-87
2022/03/10 03:20:46;;;;;;;6.10;5.50;;;2.90;98.10;;;;;;5052223;28;20226;-87
2022/03/10 03:23:15;;;;;;;7.47;5.88;;;2.90;98.60;;;;;;5052142;28;20241;-89
2022/03/10 03:25:43;;;;;;;5.88;5.28;;;2.90;98.80;;;;;;5052483;28;20201;-90
2022/03/10 03:28:11;;;;;;;6.65;5.30;;;2.90;98.80;;;;;;5052266;28;20230;-87
2022/03/10 03:30:40;;;;;;;6.80;4.85;;;2.90;98.90;;;;;;5051529;28;20237;-89
2022/03/10 03:33:10;;;;;;;8.32;5.90;;;2.90;99.00;;;;;;5052144;28;20228;-89
2022/03/10 03:35:38;;;;;;;7.13;5.60;;;2.80;98.90;;;;;;5052280;28;20209;-87
2022/03/10 03:38:07;;;;;;;10.57;5.33;;;2.80;99.20;;;;;;5052739;28;20206;-88
2022/03/10 03:40:38;;;;;;;4.90;4.45;;;2.80;99.40;;;;;;5052031;28;20242;-89
2022/03/10 03:43:07;;;;;;;14.43;6.82;;;2.80;99.60;;;;;;5052080;28;20205;-90
2022/03/10 03:45:35;;;;;;;7.47;5.60;;;2.80;99.40;;;;;;5051598;28;20244;-91
2022/03/10 03:48:04;;;;;;;11.37;5.73;;;2.70;99.90;;;;;;5055346;28;20284;-90
2022/03/10 03:50:34;;;;;;;6.73;5.23;;;2.70;99.90;;;;;;5056711;28;20229;-89
2022/03/10 03:53:02;;;;;;;33.38;5.75;;;2.70;99.90;;;;;;5056354;28;20205;-90
2022/03/10 03:55:31;;;;;;;9.47;5.80;;;2.70;99.90;;;;;;5055778;28;20206;-87
2022/03/10 03:58:00;;;;;;;6.20;5.60;;;2.70;99.90;;;;;;5055953;28;20213;-88
2022/03/10 04:00:28;;;;;;;6.37;5.13;;;2.70;99.90;;;;;;5056002;28;20299;-90
2022/03/10 04:02:57;;;;;;;7.23;5.07;;;2.60;99.90;;;;;;5056325;28;20225;-89
2022/03/10 04:05:25;;;;;;;5.50;5.00;;;2.70;99.90;;;;;;5056285;28;20209;-87
2022/03/10 04:07:55;;;;;;;6.67;5.37;;;2.70;99.90;;;;;;5055717;28;20275;-87
2022/03/10 04:10:23;;;;;;;9.50;5.50;;;2.70;99.90;;;;;;5055132;28;20275;-89
2022/03/10 04:12:52;;;;;;;6.05;5.20;;;2.70;99.90;;;;;;5055952;28;20214;-90
2022/03/10 04:15:20;;;;;;;5.43;4.93;;;2.70;99.90;;;;;;5055758;28;20213;-89
2022/03/10 04:17:49;;;;;;;7.53;5.78;;;2.70;99.90;;;;;;5055957;28;20224;-90
2022/03/10 04:20:18;;;;;;;9.00;5.93;;;2.60;99.90;;;;;;5055391;28;20228;-91
2022/03/10 04:22:46;;;;;;;6.88;5.63;;;2.60;99.90;;;;;;5055518;28;20241;-90
2022/03/10 04:25:16;;;;;;;7.78;5.85;;;2.50;99.90;;;;;;5055238;28;20210;-87
2022/03/10 04:27:45;;;;;;;12.75;6.00;;;2.50;99.90;;;;;;5055480;28;20198;-90
2022/03/10 04:30:13;;;;;;;6.23;5.13;;;2.50;99.90;;;;;;5055280;28;20221;-90
2022/03/10 04:32:43;;;;;;;8.05;5.85;;;2.50;99.90;;;;;;5055717;28;20201;-89
2022/03/10 04:35:14;;;;;;;6.20;5.60;;;2.50;99.90;;;;;;5055231;28;20210;-90
2022/03/10 04:37:43;;;;;;;7.10;5.17;;;2.40;99.90;;;;;;5055181;28;20202;-89
2022/03/10 04:40:12;;;;;;;8.77;5.83;;;2.40;99.90;;;;;;5055490;28;20226;-89
2022/03/10 04:42:42;;;;;;;15.10;5.63;;;2.50;99.90;;;;;;5055203;28;20206;-90
2022/03/10 04:45:11;;;;;;;8.07;5.43;;;2.40;99.90;;;;;;5055181;28;20393;-87
2022/03/10 04:47:41;;;;;;;6.93;5.97;;;2.40;99.90;;;;;;5055436;28;20205;-87
2022/03/10 04:50:12;;;;;;;12.93;7.25;;;2.40;99.90;;;;;;5054799;28;20232;-89
2022/03/10 04:52:41;;;;;;;6.13;5.13;;;2.40;99.90;;;;;;5054885;28;20263;-89
2022/03/10 04:55:11;;;;;;;5.38;4.88;;;2.40;99.90;;;;;;5054877;28;20202;-89
2022/03/10 04:57:41;;;;;;;7.25;5.07;;;2.50;99.90;;;;;;5055265;28;20201;-89
2022/03/10 05:00:14;;;;;;;6.10;5.50;;;2.50;99.90;;;;;;5053703;28;20248;-89
2022/03/10 05:02:42;;;;;;;6.47;5.83;;;2.50;99.90;;;;;;5054502;28;20264;-89
2022/03/10 05:05:12;;;;;;;8.07;5.37;;;2.60;99.90;;;;;;5054777;28;20225;-89
2022/03/10 05:07:41;;;;;;;5.47;4.90;;;2.60;99.90;;;;;;5054916;28;20297;-89
2022/03/10 05:10:10;;;;;;;5.97;5.22;;;2.60;99.90;;;;;;5054357;28;20233;-88
2022/03/10 05:12:47;;;;;;;6.57;5.63;;;2.60;99.90;;;;;;5054185;28;20209;-89
2022/03/10 05:15:20;;;;;;;7.05;5.63;;;2.70;99.90;;;;;;5054488;28;20233;-89
2022/03/10 05:17:49;;;;;;;7.50;5.83;;;2.70;99.90;;;;;;5054308;28;20206;-89
2022/03/10 05:20:17;;;;;;;9.60;6.13;;;2.60;99.90;;;;;;5054613;28;20230;-89
2022/03/10 05:22:47;;;;;;;15.33;6.20;;;2.60;99.90;;;;;;5054402;28;20205;-89
2022/03/10 05:25:17;;;;;;;7.40;5.15;;;2.60;99.90;;;;;;5054707;28;20291;-89
2022/03/10 05:27:46;;;;;;;16.30;6.63;;;2.60;99.90;;;;;;5054394;28;20205;-89
2022/03/10 05:30:16;;;;;;;9.32;6.22;;;2.60;99.90;;;;;;5054061;28;20241;-89
2022/03/10 05:32:46;;;;;;;6.15;5.13;;;2.60;99.90;;;;;;5054320;28;20197;-90
2022/03/10 05:35:17;;;;;;;5.03;4.53;;;2.60;99.90;;;;;;5054458;28;20236;-89
2022/03/10 05:37:48;;;;;;;8.07;5.37;;;2.60;99.90;;;;;;5054165;28;20271;-89
2022/03/10 05:40:18;;;;;;;7.90;4.80;;;2.70;99.90;;;;;;5053814;28;20222;-89
2022/03/10 05:42:47;;;;;;;9.23;5.72;;;2.70;99.90;;;;;;5055701;28;20201;-89
2022/03/10 05:45:20;;;;;;;8.80;6.38;;;2.70;99.90;;;;;;5055692;28;20209;-89
2022/03/10 05:47:51;;;;;;;6.20;5.60;;;2.70;99.90;;;;;;5055294;28;20214;-89
2022/03/10 05:50:21;;;;;;;8.80;6.50;;;2.70;99.90;;;;;;5054370;28;20229;-89
2022/03/10 05:52:49;;;;;;;8.18;6.85;;;2.80;99.90;;;;;;5054020;28;20213;-89
2022/03/10 05:55:19;;;;;;;6.22;5.22;;;2.80;99.90;;;;;;5054197;28;20206;-89
2022/03/10 05:57:48;;;;;;;7.17;6.37;;;2.80;99.90;;;;;;5054157;28;20209;-89
2022/03/10 06:00:17;;;;;;;8.57;6.80;;;2.80;99.90;;;;;;5054734;28;20233;-89
2022/03/10 06:02:50;;;;;;;11.18;6.95;;;2.80;99.90;;;;;;5055244;28;20198;-89
2022/03/10 06:05:18;;;;;;;7.18;5.95;;;2.70;99.90;;;;;;5055176;28;20228;-89
2022/03/10 06:07:49;;;;;;;6.07;5.10;;;2.70;99.90;;;;;;5054324;28;20220;-90
2022/03/10 06:10:18;;;;;;;9.67;5.97;;;2.80;99.90;;;;;;5053141;28;20255;-89
2022/03/10 06:12:46;;;;;;;8.23;6.68;;;2.70;99.90;;;;;;5053200;28;20251;-90
2022/03/10 06:15:15;;;;;;;6.00;5.32;;;2.60;99.90;;;;;;5053559;28;20213;-89
2022/03/10 06:17:43;;;;;;;5.55;5.05;;;2.70;99.90;;;;;;5053050;28;20205;-89
2022/03/10 06:20:14;;;;;;;9.30;6.57;;;2.70;99.90;;;;;;5053227;28;20226;-89
2022/03/10 06:22:43;;;;;;;6.13;5.53;;;2.70;99.90;;;;;;5053432;28;20262;-89
2022/03/10 06:25:11;;;;;;;7.68;6.78;;;2.80;99.90;;;;;;5053284;28;20267;-89
2022/03/10 06:27:40;;;;;;;7.00;6.28;;;2.80;99.90;;;;;;5053240;28;20232;-89
2022/03/10 06:30:11;;;;;;;10.57;6.50;;;2.80;99.90;;;;;;5052941;28;20234;-89
2022/03/10 06:32:40;;;;;;;8.40;6.23;;;2.90;99.90;;;;;;5053076;28;20234;-90
2022/03/10 06:35:13;;;;;;;8.00;7.03;;;3.00;99.90;;;;;;5053375;28;20275;-89
2022/03/10 06:37:45;;;;;;;9.15;6.70;;;3.10;99.90;;;;;;5053428;28;20206;-89
2022/03/10 06:40:14;;;;;;;7.05;6.32;;;3.20;99.90;;;;;;5053012;28;20225;-89
2022/03/10 06:42:43;;;;;;;8.48;6.78;;;3.30;99.90;;;;;;5052910;28;20206;-89
2022/03/10 06:45:14;;;;;;;9.95;6.43;;;3.50;99.90;;;;;;5052993;28;20213;-89
2022/03/10 06:47:42;;;;;;;6.38;5.78;;;3.60;99.90;;;;;;5053065;28;20255;-89
2022/03/10 06:50:13;;;;;;;11.38;7.20;;;3.80;99.90;;;;;;5052633;28;20279;-89
2022/03/10 06:52:41;;;;;;;6.90;5.70;;;4.00;99.90;;;;;;5052450;28;20218;-89
2022/03/10 06:55:10;;;;;;;8.88;6.63;;;4.10;99.90;;;;;;5052670;28;20205;-89
2022/03/10 06:57:38;;;;;;;7.75;6.95;;;4.40;99.90;;;;;;5053197;28;20206;-90
2022/03/10 07:00:08;;;;;;;8.40;7.60;;;4.50;99.90;;;;;;5053020;28;20229;-88
2022/03/10 07:02:37;;;;;;;11.90;8.95;;;4.60;99.90;;;;;;5052905;28;20228;-89
2022/03/10 07:05:07;;;;;;;8.07;7.32;;;4.60;99.90;;;;;;5052559;28;20206;-89
2022/03/10 07:07:37;;;;;;;9.75;7.95;;;4.70;99.90;;;;;;5054184;28;20228;-89
2022/03/10 07:10:07;;;;;;;11.02;8.35;;;4.80;99.90;;;;;;5054697;28;20287;-89
2022/03/10 07:12:39;;;;;;;9.85;7.95;;;4.90;99.90;;;;;;5054473;28;20218;-89
2022/03/10 07:15:08;;;;;;;9.65;8.38;;;4.90;99.90;;;;;;5053660;28;20205;-89
2022/03/10 07:17:37;;;;;;;9.65;6.93;;;5.00;99.90;;;;;;5052548;28;20263;-90
2022/03/10 07:20:07;;;;;;;9.48;7.63;;;5.10;99.90;;;;;;5052318;28;20234;-89
2022/03/10 07:22:37;;;;;;;13.75;8.98;;;5.30;99.90;;;;;;5052271;28;20202;-89
2022/03/10 07:25:08;;;;;;;8.80;7.78;;;5.40;99.90;;;;;;5053460;28;20210;-88
2022/03/10 07:27:37;;;;;;;14.00;9.65;;;5.50;99.90;;;;;;5053073;28;20205;-89
2022/03/10 07:30:07;;;;;;;13.70;9.23;;;5.60;99.90;;;;;;5052983;28;20230;-88
2022/03/10 07:32:35;;;;;;;10.68;9.40;;;5.70;99.90;;;;;;5054882;28;20282;-89
2022/03/10 07:35:04;;;;;;;8.85;7.97;;;5.80;99.90;;;;;;5052779;28;20210;-89
2022/03/10 07:37:32;;;;;;;10.10;8.85;;;5.90;99.90;;;;;;5052263;28;20209;-89
2022/03/10 07:40:02;;;;;;;44.72;9.75;;;6.00;99.90;;;;;;5052119;28;20241;-90
2022/03/10 07:42:31;;;;;;;12.23;9.95;;;6.00;99.90;;;;;;5052630;28;20267;-89
2022/03/10 07:45:00;;;;;;;12.68;10.52;;;6.00;99.90;;;;;;5052330;28;20244;-89
2022/03/10 07:47:29;;;;;;;13.23;10.38;;;6.10;99.90;;;;;;5052129;28;20229;-89
2022/03/10 07:49:58;;;;;;;18.95;11.18;;;6.10;99.90;;;;;;5052201;28;20229;-89
2022/03/10 07:52:26;;;;;;;15.85;10.35;;;6.10;99.90;;;;;;5051679;28;20226;-89
2022/03/10 07:54:55;;;;;;;13.70;9.93;;;6.10;99.90;;;;;;5052395;28;20205;-89
2022/03/10 07:57:25;;;;;;;12.85;10.20;;;6.20;99.90;;;;;;5052378;28;20205;-89
2022/03/10 07:59:53;;;;;;;14.73;11.15;;;6.20;99.90;;;;;;5051868;28;20225;-89
2022/03/10 08:02:22;;;;;;;18.55;11.85;;;6.30;99.90;;;;;;5051858;28;20198;-89
2022/03/10 08:04:50;;;;;;;14.82;11.77;;;6.40;99.90;;;;;;5051975;28;20201;-89
2022/03/10 08:07:19;;;;;;;21.10;12.20;;;6.50;99.90;;;;;;5052106;28;20206;-89
2022/03/10 08:09:48;;;;;;;11.80;10.60;;;6.70;99.90;;;;;;5052047;28;20273;-89
2022/03/10 08:12:16;;;;;;;19.45;12.52;;;6.80;99.90;;;;;;5051498;28;20217;-89
2022/03/10 08:14:46;;;;;;;13.95;11.70;;;6.90;99.90;;;;;;5051468;28;20209;-89
2022/03/10 08:17:14;;;;;;;12.75;10.10;;;6.90;99.90;;;;;;5051974;28;20236;-89
2022/03/10 08:19:43;;;;;;;13.65;12.00;;;6.90;99.90;;;;;;5051636;28;20210;-89
2022/03/10 08:22:12;;;;;;;19.27;12.65;;;6.90;99.90;;;;;;5052128;28;20210;-89
2022/03/10 08:24:41;;;;;;;13.93;11.40;;;6.90;99.90;;;;;;5052015;28;20256;-89
2022/03/10 08:27:09;;;;;;;14.25;11.98;;;6.90;99.90;;;;;;5051735;28;20210;-89
2022/03/10 08:29:38;;;;;;;16.33;11.80;;;7.00;99.90;;;;;;5051831;28;20202;-89
2022/03/10 08:32:14;;;;;;;14.23;12.02;;;7.00;99.90;;;;;;5051682;28;20225;-89
2022/03/10 08:34:42;;;;;;;15.70;12.63;;;7.20;99.90;;;;;;5055631;28;20205;-89
2022/03/10 08:37:11;;;;;;;13.10;11.13;;;7.20;99.90;;;;;;5055682;28;20259;-89
2022/03/10 08:39:39;;;;;;;13.27;10.35;;;7.30;99.90;;;;;;5055516;28;20291;-89
2022/03/10 08:42:08;;;;;;;14.55;10.40;;;7.50;99.90;;;;;;5055067;28;20205;-89
2022/03/10 08:44:37;;;;;;;16.92;12.07;;;7.80;99.70;;;;;;5055334;28;20217;-89
2022/03/10 08:47:06;;;;;;;16.95;11.43;;;8.00;99.30;;;;;;5055422;28;20229;-89
2022/03/10 08:49:36;;;;;;;13.85;11.32;;;8.20;98.30;;;;;;5055278;28;20201;-89
2022/03/10 08:52:06;;;;;;;14.65;10.98;;;8.30;98.20;;;;;;5054682;28;20259;-88
2022/03/10 08:54:34;;;;;;;15.85;11.60;;;8.20;97.80;;;;;;5055126;28;20206;-89
2022/03/10 08:57:06;;;;;;;11.70;10.50;;;8.10;97.30;;;;;;5055237;28;20263;-89
2022/03/10 08:59:34;;;;;;;11.15;10.05;;;8.00;97.40;;;;;;5054942;28;20232;-89
2022/03/10 09:02:03;;;;;;;12.15;10.32;;;7.80;97.70;;;;;;5054976;28;20260;-89
2022/03/10 09:04:31;;;;;;;11.13;9.98;;;7.90;97.90;;;;;;5054875;28;20198;-89
2022/03/10 09:07:01;;;;;;;10.60;9.52;;;8.10;97.10;;;;;;5054383;28;20221;-88
2022/03/10 09:09:30;;;;;;;11.90;9.63;;;8.10;97.20;;;;;;5054618;28;20205;-89
2022/03/10 09:11:59;;;;;;;13.55;9.73;;;8.00;96.70;;;;;;5054767;28;20202;-89
2022/03/10 09:14:27;;;;;;;22.02;10.30;;;7.90;96.70;;;;;;5054498;28;20254;-89
2022/03/10 09:16:56;;;;;;;10.13;9.07;;;7.80;96.50;;;;;;5054683;28;20209;-89
2022/03/10 09:19:25;;;;;;;13.68;10.70;;;7.70;96.50;;;;;;5054862;28;20209;-89
2022/03/10 09:21:53;;;;;;;13.07;9.77;;;7.80;96.70;;;;;;5053902;28;20253;-89
2022/03/10 09:24:26;;;;;;;10.65;9.55;;;7.80;96.70;;;;;;5054633;28;20218;-89
2022/03/10 09:26:54;;;;;;;15.32;10.65;;;7.70;96.60;;;;;;5054638;28;20241;-89
2022/03/10 09:29:22;;;;;;;13.10;9.90;;;7.60;97.00;;;;;;5054697;28;20201;-89
2022/03/10 09:31:52;;;;;;;11.30;9.20;;;7.60;97.20;;;;;;5055072;28;20226;-89
2022/03/10 09:34:21;;;;;;;12.15;9.80;;;7.60;96.70;;;;;;5057142;28;20217;-89
2022/03/10 09:36:49;;;;;;;11.48;8.80;;;7.80;97.00;;;;;;5055388;28;20288;-89
2022/03/10 09:39:18;;;;;;;12.00;10.10;;;7.90;96.80;;;;;;5054517;28;20197;-89
2022/03/10 09:41:49;;;;;;;10.32;9.25;;;8.00;96.80;;;;;;5053871;28;20218;-89
2022/03/10 09:44:20;;;;;;;11.32;10.23;;;8.20;96.30;;;;;;5054089;28;20205;-89
2022/03/10 09:46:50;;;;;;;14.07;9.88;;;8.60;95.30;;;;;;5054213;28;20205;-89
2022/03/10 09:49:21;;;;;;;12.70;10.05;;;8.70;94.80;;;;;;5054639;28;20206;-89
2022/03/10 09:51:50;;;;;;;10.15;9.13;;;8.70;94.60;;;;;;5054260;28;20279;-88
2022/03/10 09:54:18;;;;;;;13.05;9.85;;;8.70;94.50;;;;;;5057884;28;20217;-89
2022/03/10 09:56:49;;;;;;;19.35;9.90;;;8.50;94.70;;;;;;5054337;28;20209;-89
2022/03/10 09:59:22;;;;;;;9.30;8.32;;;8.40;94.50;;;;;;5054324;28;20231;-89
2022/03/10 10:01:51;;;;;;;9.30;8.43;;;8.40;94.40;;;;;;5053961;28;20233;-88
2022/03/10 10:04:21;;;;;;;14.82;8.80;;;8.70;94.10;;;;;;5053927;28;20206;-87
2022/03/10 10:07:05;;;;;;;9.10;7.53;;;9.00;93.00;;;;;;5053680;28;20205;-87
2022/03/10 10:09:41;;;;;;;10.48;8.30;;;9.50;91.90;;;;;;5052276;28;20216;-87
2022/03/10 10:12:12;;;;;;;11.75;8.43;;;10.00;92.30;;;;;;5053565;28;20283;-89
2022/03/10 10:14:44;;;;;;;9.25;7.03;;;10.60;89.90;;;;;;5054011;28;20275;-87
2022/03/10 10:17:12;;;;;;;10.88;7.30;;;10.90;86.00;;;;;;5053226;28;20206;-87
2022/03/10 10:19:42;;;;;;;9.00;8.00;;;10.90;85.00;;;;;;5053658;28;20212;-87
2022/03/10 10:22:30;;;;;;;8.63;7.82;;;10.80;84.90;;;;;;5053462;28;20252;-87
2022/03/10 10:25:00;;;;;;;8.15;7.32;;;10.80;83.40;;;;;;5053649;28;20205;-87
2022/03/10 10:27:32;;;;;;;7.68;6.35;;;10.70;84.00;;;;;;5053427;28;20215;-87
2022/03/10 10:30:02;;;;;;;8.27;7.43;;;10.90;83.00;;;;;;5053189;28;20938;-87
2022/03/10 10:32:36;;;;;;;7.00;6.35;;;11.30;80.80;;;;;;5053096;28;20213;-89
2022/03/10 10:35:08;;;;;;;7.60;6.80;;;11.40;79.50;;;;;;5052863;28;20221;-86
2022/03/10 10:37:38;;;;;;;8.82;6.97;;;11.40;78.50;;;;;;5052872;28;20206;-87
2022/03/10 10:40:10;;;;;;;8.45;7.18;;;11.00;78.60;;;;;;5052974;28;20275;-87
2022/03/10 10:42:42;;;;;;;8.77;7.25;;;10.70;80.00;;;;;;5052691;28;20236;-87
2022/03/10 10:45:31;;;;;;;6.93;6.22;;;10.80;79.00;;;;;;5052842;28;20216;-87
2022/03/10 10:48:01;;;;;;;6.95;6.25;;;11.50;79.30;;;;;;5053216;28;20206;-86
2022/03/10 10:50:30;;;;;;;7.18;6.45;;;12.20;76.80;;;;;;5052397;28;20230;-87
2022/03/10 10:52:59;;;;;;;29.73;8.98;;;12.20;75.10;;;;;;5053211;28;20206;-86
2022/03/10 10:55:35;;;;;;;7.97;7.22;;;12.10;74.90;;;;;;5052752;28;20256;-86
2022/03/10 10:58:10;;;;;;;7.53;6.57;;;12.00;73.60;;;;;;5051784;28;20209;-87
2022/03/10 11:00:43;;;;;;;7.80;7.00;;;11.40;75.40;;;;;;5052331;28;20221;-87
2022/03/10 11:03:23;;;;;;;9.18;7.65;;;10.80;76.00;;;;;;5052633;28;20205;-89
2022/03/10 11:05:53;;;;;;;8.50;7.65;;;10.60;77.30;;;;;;5052798;28;20205;-87
2022/03/10 11:08:22;;;;;;;8.05;7.20;;;10.80;77.40;;;;;;5052782;28;20209;-87
2022/03/10 11:10:52;;;;;;;8.48;7.57;;;11.20;76.90;;;;;;5052444;28;20233;-87
2022/03/10 11:13:23;;;;;;;12.37;8.90;;;12.00;75.30;;;;;;5052571;28;20210;-88
2022/03/10 11:15:53;;;;;;;9.95;7.00;;;12.60;72.60;;;;;;5052295;28;20210;-87
2022/03/10 11:18:23;;;;;;;10.90;7.75;;;12.50;71.90;;;;;;5052307;28;20206;-87
2022/03/10 11:21:00;;;;;;;7.75;6.57;;;12.00;70.90;;;;;;5052166;28;20257;-87
2022/03/10 11:23:43;;;;;;;8.20;7.45;;;11.70;70.50;;;;;;5052398;28;20213;-87
2022/03/10 11:26:19;;;;;;;9.40;7.20;;;11.80;70.20;;;;;;5052370;28;20213;-87
2022/03/10 11:28:51;;;;;;;9.65;7.47;;;11.20;70.80;;;;;;5052454;28;20209;-87
2022/03/10 11:31:22;;;;;;;8.45;7.63;;;10.80;71.70;;;;;;5051963;28;20221;-86
2022/03/10 11:33:50;;;;;;;9.27;7.60;;;10.50;71.30;;;;;;5052224;28;20225;-86
2022/03/10 11:36:24;;;;;;;7.85;7.05;;;10.10;72.40;;;;;;5052511;28;20209;-87
2022/03/10 11:38:54;;;;;;;11.00;7.97;;;9.90;72.40;;;;;;5052505;28;20218;-87
2022/03/10 11:41:26;;;;;;;12.93;7.95;;;10.20;72.20;;;;;;5052293;28;20221;-86
2022/03/10 11:44:00;;;;;;;8.50;6.88;;;11.00;71.30;;;;;;5052409;28;20210;-86
2022/03/10 11:46:30;;;;;;;10.95;7.07;;;11.70;69.90;;;;;;5052658;28;20244;-86
2022/03/10 11:49:05;;;;;;;6.40;5.75;;;12.30;66.20;;;;;;5052204;28;20257;-86
2022/03/10 11:51:53;;;;;;;6.00;5.50;;;12.70;65.20;;;;;;5051731;28;20229;-85
2022/03/10 11:54:26;;;;;;;7.35;6.65;;;12.50;62.20;;;;;;5051852;28;20287;-86
2022/03/10 11:57:05;;;;;;;6.53;5.88;;;12.10;62.40;;;;;;5052306;28;20289;-86
2022/03/10 11:59:49;;;;;;;6.60;5.90;;;12.20;63.20;;;;;;5052306;28;20283;-87
2022/03/10 12:02:48;;;;;;;7.40;6.05;;;12.70;60.60;;;;;;5052378;28;20206;-86
2022/03/10 12:05:16;;;;;;;11.27;6.22;;;13.20;59.60;;;;;;5052230;28;20198;-86
2022/03/10 12:07:52;;;;;;;5.32;4.75;;;13.50;58.00;;;;;;5052139;28;20224;-86
2022/03/10 12:10:22;;;;;;;12.18;5.30;;;13.70;57.80;;;;;;5055195;28;20252;-86
2022/03/10 12:12:50;;;;;;;6.93;5.43;;;13.80;55.50;;;;;;5056340;28;20217;-87
2022/03/10 12:15:51;;;;;;;5.03;4.55;;;13.90;54.80;;;;;;5055704;28;20217;-86
2022/03/10 12:18:26;;;;;;;9.25;5.07;;;14.10;53.60;;;;;;5055401;28;20225;-87
2022/03/10 12:20:56;;;;;;;8.13;5.60;;;14.10;53.00;;;;;;5055579;28;20229;-86
2022/03/10 12:23:27;;;;;;;7.95;5.65;;;14.20;53.30;;;;;;5055726;28;20205;-87
2022/03/10 12:25:59;;;;;;;7.45;5.65;;;14.30;54.20;;;;;;5055934;28;20210;-87
2022/03/10 12:28:34;;;;;;;6.43;5.40;;;14.70;53.10;;;;;;5055631;28;20260;-87
2022/03/10 12:31:10;;;;;;;5.05;4.63;;;14.80;52.20;;;;;;5055436;28;20252;-86
2022/03/10 12:33:49;;;;;;;5.68;5.07;;;14.70;51.70;;;;;;5055757;28;20198;-86
2022/03/10 12:36:32;;;;;;;8.27;5.45;;;14.70;50.50;;;;;;5055435;28;20221;-87
2022/03/10 12:39:02;;;;;;;7.43;5.53;;;14.70;50.70;;;;;;5055736;28;20290;-86
2022/03/10 12:41:34;;;;;;;7.85;5.05;;;14.90;50.00;;;;;;5055328;28;20233;-87
2022/03/10 12:44:03;;;;;;;6.07;5.50;;;15.00;49.20;;;;;;5055771;28;20206;-87
2022/03/10 12:46:34;;;;;;;8.10;5.70;;;15.00;49.10;;;;;;5055161;28;20220;-86
2022/03/10 12:49:09;;;;;;;7.07;4.85;;;15.10;47.60;;;;;;5055249;28;20233;-86
2022/03/10 12:51:39;;;;;;;5.35;4.65;;;15.00;47.90;;;;;;5054917;28;20233;-86
2022/03/10 12:54:09;;;;;;;5.80;4.38;;;14.70;48.00;;;;;;5055078;28;20202;-86
2022/03/10 12:56:47;;;;;;;4.97;4.43;;;14.90;49.30;;;;;;5054638;28;20307;-87
2022/03/10 12:59:26;;;;;;;6.13;5.13;;;15.00;48.90;;;;;;5054892;28;20210;-86
2022/03/10 13:02:10;;;;;;;5.05;4.55;;;15.10;47.70;;;;;;5054936;28;20241;-86
2022/03/10 13:04:47;;;;;;;5.30;4.22;;;15.10;47.70;;;;;;5055007;28;20285;-87
2022/03/10 13:07:16;;;;;;;4.22;3.83;;;15.30;46.20;;;;;;5055005;28;20201;-87
2022/03/10 13:09:51;;;;;;;5.90;4.60;;;15.60;46.80;;;;;;5054548;28;20202;-86
2022/03/10 13:12:25;;;;;;;5.00;4.15;;;15.60;44.70;;;;;;5054355;28;20213;-87